createdAt,value
2023-05-15T00:00:39.721Z,20.30
2023-05-15T00:03:06.563Z,21.10
2023-05-15T00:05:33.533Z,15.70
2023-05-15T00:08:00.520Z,19.70
2023-05-15T00:10:27.364Z,19.20
2023-05-15T00:12:55.380Z,16.20
2023-05-15T00:15:22.262Z,16.90
2023-05-15T00:17:49.105Z,16.70
2023-05-15T00:20:15.990Z,16.20
2023-05-15T00:22:42.852Z,13.60
2023-05-15T00:25:10.507Z,18.90
2023-05-15T00:27:37.470Z,13.60
2023-05-15T00:30:05.948Z,14.40
2023-05-15T00:32:32.936Z,14.70
2023-05-15T00:34:59.848Z,15.90
2023-05-15T00:37:26.630Z,15.50
2023-05-15T00:39:53.740Z,13.60
2023-05-15T00:42:20.795Z,20.70
2023-05-15T00:44:47.645Z,18.90
2023-05-15T00:47:14.480Z,15.20
2023-05-15T00:49:41.430Z,15.20
2023-05-15T00:52:08.902Z,13.90
2023-05-15T00:54:35.709Z,15.60
2023-05-15T00:57:04.531Z,13.10
2023-05-15T00:59:31.577Z,14.80
2023-05-15T01:01:58.498Z,17.30
2023-05-15T01:04:25.695Z,19.40
2023-05-15T01:06:55.601Z,16.70
2023-05-15T01:09:25.806Z,18.20
2023-05-15T01:11:54.597Z,17.50
2023-05-15T01:14:21.434Z,19.70
2023-05-15T01:16:48.326Z,16.30
2023-05-15T01:19:15.288Z,16.60
2023-05-15T01:21:48.401Z,17.20
2023-05-15T01:25:14.077Z,23.80
2023-05-15T01:27:52.285Z,16.50
2023-05-15T01:30:23.714Z,18.30
2023-05-15T01:33:13.437Z,19.60
2023-05-15T01:35:51.301Z,19.90
2023-05-15T01:38:33.405Z,17.60
2023-05-15T01:41:06.654Z,19.10
2023-05-15T01:43:33.700Z,14.90
2023-05-15T01:46:01.689Z,18.10
2023-05-15T01:48:28.794Z,14.50
2023-05-15T01:50:58.255Z,11.30
2023-05-15T01:53:25.558Z,15.10
2023-05-15T01:55:52.375Z,13.80
2023-05-15T01:58:19.284Z,15.40
2023-05-15T02:00:46.070Z,13.50
2023-05-15T02:03:12.938Z,13.10
2023-05-15T02:05:41.033Z,16.30
2023-05-15T02:08:07.915Z,16.40
2023-05-15T02:10:34.803Z,14.00
2023-05-15T02:13:01.705Z,17.20
2023-05-15T02:15:29.339Z,12.40
2023-05-15T02:17:56.297Z,18.20
2023-05-15T02:20:23.249Z,20.50
2023-05-15T02:22:50.026Z,15.30
2023-05-15T02:25:17.053Z,15.50
2023-05-15T02:27:52.131Z,14.80
2023-05-15T02:30:31.258Z,12.90
2023-05-15T02:33:27.459Z,13.80
2023-05-15T02:35:59.912Z,12.60
2023-05-15T02:38:29.865Z,17.10
2023-05-15T02:40:57.010Z,15.00
2023-05-15T02:43:24.109Z,13.80
2023-05-15T02:45:51.103Z,15.60
2023-05-15T02:48:18.102Z,16.20
2023-05-15T02:50:45.645Z,18.60
2023-05-15T02:53:14.702Z,14.20
2023-05-15T02:55:41.484Z,16.70
2023-05-15T02:58:08.396Z,16.90
2023-05-15T03:00:35.377Z,14.40
2023-05-15T03:03:02.283Z,12.60
2023-05-15T03:05:29.279Z,12.20
2023-05-15T03:07:57.557Z,11.40
2023-05-15T03:10:24.560Z,13.40
2023-05-15T03:12:51.624Z,13.20
2023-05-15T03:15:19.361Z,15.00
2023-05-15T03:17:46.193Z,12.40
2023-05-15T03:20:14.625Z,11.00
2023-05-15T03:22:41.804Z,10.50
2023-05-15T03:25:11.804Z,10.90
2023-05-15T03:27:38.923Z,11.60
2023-05-15T03:30:06.911Z,15.80
2023-05-15T03:32:33.752Z,13.00
2023-05-15T03:35:01.031Z,16.70
2023-05-15T03:37:28.240Z,13.80
2023-05-15T03:39:55.239Z,11.70
2023-05-15T03:42:23.812Z,12.40
2023-05-15T03:44:51.094Z,10.60
2023-05-15T03:47:18.395Z,11.90
2023-05-15T03:49:46.548Z,12.60
2023-05-15T03:52:13.441Z,12.50
2023-05-15T03:54:40.451Z,13.40
2023-05-15T03:57:07.965Z,14.60
2023-05-15T03:59:34.754Z,11.10
2023-05-15T04:02:04.799Z,15.20
2023-05-15T04:04:32.586Z,12.90
2023-05-15T04:07:00.143Z,12.20
2023-05-15T04:09:27.008Z,10.50
2023-05-15T04:11:53.889Z,14.20
2023-05-15T04:14:21.098Z,15.80
2023-05-15T04:16:48.025Z,18.70
2023-05-15T04:19:15.103Z,15.70
2023-05-15T04:21:42.204Z,12.80
2023-05-15T04:24:09.015Z,14.80
2023-05-15T04:26:36.689Z,15.50
2023-05-15T04:29:04.867Z,12.30
2023-05-15T04:31:32.291Z,15.30
2023-05-15T04:33:59.387Z,11.70
2023-05-15T04:36:26.285Z,13.50
2023-05-15T04:38:53.081Z,15.60
2023-05-15T04:41:19.887Z,12.70
2023-05-15T04:43:46.799Z,15.90
2023-05-15T04:46:13.726Z,12.10
2023-05-15T04:48:40.760Z,12.50
2023-05-15T04:51:07.893Z,13.00
2023-05-15T04:53:34.799Z,12.50
2023-05-15T04:56:01.707Z,14.60
2023-05-15T04:58:28.596Z,13.80
2023-05-15T05:00:55.732Z,12.10
2023-05-15T05:03:23.216Z,15.60
2023-05-15T05:05:50.304Z,16.30
2023-05-15T05:08:17.258Z,12.30
2023-05-15T05:10:44.123Z,13.10
2023-05-15T05:13:11.049Z,13.40
2023-05-15T05:15:38.136Z,10.60
2023-05-15T05:18:06.266Z,12.60
2023-05-15T05:20:33.175Z,11.00
2023-05-15T05:23:00.029Z,13.80
2023-05-15T05:25:26.990Z,12.90
2023-05-15T05:27:53.970Z,12.30
2023-05-15T05:30:22.453Z,12.60
2023-05-15T05:32:49.316Z,8.90
2023-05-15T05:35:16.228Z,10.70
2023-05-15T05:37:43.321Z,12.00
2023-05-15T05:40:11.169Z,11.50
2023-05-15T05:42:38.166Z,12.20
2023-05-15T05:45:06.804Z,12.20
2023-05-15T05:47:33.780Z,10.60
2023-05-15T05:50:00.625Z,12.10
2023-05-15T05:52:29.264Z,12.70
2023-05-15T05:54:56.127Z,12.60
2023-05-15T05:57:22.937Z,11.40
2023-05-15T05:59:50.156Z,13.10
2023-05-15T06:02:17.255Z,11.90
2023-05-15T06:04:44.346Z,10.90
2023-05-15T06:07:11.266Z,7.50
2023-05-15T06:09:38.146Z,10.00
2023-05-15T06:12:05.788Z,7.30
2023-05-15T06:14:32.687Z,7.80
2023-05-15T06:17:00.722Z,8.90
2023-05-15T06:19:27.610Z,9.10
2023-05-15T06:21:54.693Z,7.20
2023-05-15T06:24:21.523Z,7.00
2023-05-15T06:26:49.636Z,12.60
2023-05-15T06:29:17.665Z,7.70
2023-05-15T06:31:44.482Z,8.70
2023-05-15T06:34:11.274Z,9.80
2023-05-15T06:36:38.199Z,6.60
2023-05-15T06:39:05.611Z,5.70
2023-05-15T06:41:33.130Z,8.50
2023-05-15T06:44:00.116Z,7.80
2023-05-15T06:46:26.895Z,11.00
2023-05-15T06:48:53.787Z,5.90
2023-05-15T06:51:20.691Z,5.10
2023-05-15T06:53:47.474Z,5.70
2023-05-15T06:56:14.354Z,6.70
2023-05-15T06:58:41.132Z,4.40
2023-05-15T07:01:09.554Z,4.20
2023-05-15T07:03:36.444Z,3.70
2023-05-15T07:06:03.384Z,3.70
2023-05-15T07:08:30.193Z,3.90
2023-05-15T07:10:57.136Z,3.10
2023-05-15T07:13:23.920Z,8.40
2023-05-15T07:15:50.797Z,3.10
2023-05-15T07:18:18.164Z,5.00
2023-05-15T07:20:45.124Z,7.00
2023-05-15T07:23:11.986Z,4.40
2023-05-15T07:25:38.831Z,4.00
2023-05-15T07:28:05.650Z,8.70
2023-05-15T07:30:32.500Z,3.70
2023-05-15T07:32:59.420Z,5.10
2023-05-15T07:35:26.654Z,6.10
2023-05-15T07:37:53.839Z,4.70
2023-05-15T07:40:20.737Z,6.90
2023-05-15T07:42:47.699Z,4.50
2023-05-15T07:45:14.568Z,6.20
2023-05-15T07:47:50.711Z,6.90
2023-05-15T07:50:17.703Z,3.00
2023-05-15T07:52:44.638Z,3.50
2023-05-15T07:55:11.671Z,4.90
2023-05-15T07:57:42.703Z,5.80
2023-05-15T08:00:13.638Z,4.20
2023-05-15T08:02:41.302Z,6.90
2023-05-15T08:05:08.357Z,6.50
2023-05-15T08:07:35.282Z,6.20
2023-05-15T08:10:04.289Z,2.60
2023-05-15T08:12:31.189Z,3.90
2023-05-15T08:14:58.056Z,3.50
2023-05-15T08:17:25.031Z,7.50
2023-05-15T08:19:52.331Z,4.00
2023-05-15T08:22:19.237Z,5.80
2023-05-15T08:24:46.031Z,4.80
2023-05-15T08:27:12.786Z,9.80
2023-05-15T08:29:40.046Z,4.50
2023-05-15T08:32:07.785Z,3.90
2023-05-15T08:34:34.689Z,5.90
2023-05-15T08:37:01.760Z,3.20
2023-05-15T08:39:28.899Z,4.50
2023-05-15T08:42:19.372Z,5.30
2023-05-15T08:44:46.235Z,8.30
2023-05-15T08:47:14.448Z,3.30
2023-05-15T08:50:04.973Z,10.30
2023-05-15T08:52:32.810Z,6.80
2023-05-15T08:55:00.157Z,3.10
2023-05-15T08:57:28.169Z,7.30
2023-05-15T08:59:55.244Z,5.30
2023-05-15T09:02:22.650Z,5.90
2023-05-15T09:04:49.541Z,5.50
2023-05-15T09:07:17.405Z,4.40
2023-05-15T09:09:47.505Z,11.40
2023-05-15T09:12:17.457Z,10.10
2023-05-15T09:14:44.326Z,5.80
2023-05-15T09:17:11.936Z,5.50
2023-05-15T09:19:40.030Z,5.00
2023-05-15T09:22:26.156Z,5.60
2023-05-15T09:24:58.170Z,6.90
2023-05-15T09:27:25.042Z,3.80
2023-05-15T09:29:54.428Z,4.30
2023-05-15T09:32:21.479Z,7.20
2023-05-15T09:34:54.775Z,9.90
2023-05-15T09:37:32.058Z,5.40
2023-05-15T09:40:11.851Z,4.00
2023-05-15T09:42:38.871Z,11.00
2023-05-15T09:45:06.752Z,7.20
2023-05-15T09:47:34.025Z,3.90
2023-05-15T09:50:01.384Z,6.00
2023-05-15T09:52:28.931Z,6.00
2023-05-15T09:54:56.566Z,5.10
2023-05-15T09:57:23.550Z,6.30
2023-05-15T09:59:50.462Z,5.50
2023-05-15T10:02:24.813Z,4.90
2023-05-15T10:04:56.609Z,8.30
2023-05-15T10:07:36.389Z,7.20
2023-05-15T10:10:04.614Z,8.70
2023-05-15T10:12:32.364Z,5.50
2023-05-15T10:15:00.206Z,11.40
2023-05-15T10:17:28.556Z,6.20
2023-05-15T10:19:58.362Z,4.60
2023-05-15T10:22:29.126Z,7.00
2023-05-15T10:25:43.744Z,5.10
2023-05-15T10:28:11.345Z,6.60
2023-05-15T10:30:38.576Z,6.70
2023-05-15T10:33:06.750Z,4.40
2023-05-15T10:35:38.195Z,3.20
2023-05-15T10:38:05.633Z,5.00
2023-05-15T10:40:33.442Z,7.70
2023-05-15T10:43:03.199Z,3.00
2023-05-15T10:45:30.292Z,5.70
2023-05-15T10:47:57.187Z,8.10
2023-05-15T10:50:24.139Z,4.40
2023-05-15T10:52:52.015Z,7.00
2023-05-15T10:55:18.925Z,4.50
2023-05-15T10:57:47.040Z,2.30
2023-05-15T11:00:31.723Z,3.20
2023-05-15T11:03:07.381Z,5.80
2023-05-15T11:06:09.785Z,5.50
2023-05-15T11:08:37.878Z,3.20
2023-05-15T11:11:05.247Z,4.70
2023-05-15T11:15:12.559Z,6.80
2023-05-15T11:17:39.625Z,3.50
2023-05-15T11:20:07.250Z,2.70
2023-05-15T11:22:38.812Z,2.30
2023-05-15T11:25:16.140Z,5.20
2023-05-15T11:27:44.681Z,5.00
2023-05-15T11:30:20.926Z,2.40
2023-05-15T11:32:47.801Z,7.10
2023-05-15T11:35:25.252Z,3.10
2023-05-15T11:37:54.440Z,4.40
2023-05-15T11:40:26.661Z,5.10
2023-05-15T11:43:07.711Z,5.00
2023-05-15T11:45:38.878Z,10.70
2023-05-15T11:48:07.564Z,3.60
2023-05-15T11:50:35.446Z,7.50
2023-05-15T11:53:04.667Z,6.50
2023-05-15T11:55:32.924Z,6.40
2023-05-15T11:58:00.883Z,3.70
2023-05-15T12:00:27.892Z,7.50
2023-05-15T12:02:54.896Z,7.00
2023-05-15T12:05:22.361Z,4.40
2023-05-15T12:07:49.281Z,5.90
2023-05-15T12:10:16.121Z,3.50
2023-05-15T12:12:43.728Z,2.70
2023-05-15T12:15:12.157Z,4.60
2023-05-15T12:17:40.232Z,4.40
2023-05-15T12:20:17.964Z,4.90
2023-05-15T12:22:45.301Z,4.30
2023-05-15T12:25:12.801Z,2.80
2023-05-15T12:27:40.152Z,8.00
2023-05-15T12:30:07.792Z,4.80
2023-05-15T12:32:36.341Z,4.70
2023-05-15T12:35:05.093Z,4.60
2023-05-15T12:37:33.926Z,4.40
2023-05-15T12:40:02.442Z,4.60
2023-05-15T12:42:29.372Z,8.50
2023-05-15T12:44:58.043Z,3.70
2023-05-15T12:47:28.351Z,2.40
2023-05-15T12:49:56.869Z,6.70
2023-05-15T12:52:23.917Z,9.50
2023-05-15T12:54:50.909Z,6.10
2023-05-15T12:57:17.736Z,5.40
2023-05-15T12:59:44.620Z,3.20
2023-05-15T13:02:12.251Z,3.80
2023-05-15T13:04:39.461Z,1.90
2023-05-15T13:07:06.665Z,5.50
2023-05-15T13:09:35.411Z,10.40
2023-05-15T13:12:03.807Z,6.70
2023-05-15T13:14:34.559Z,3.10
2023-05-15T13:17:03.022Z,9.10
2023-05-15T13:19:29.898Z,4.40
2023-05-15T13:21:57.731Z,5.90
2023-05-15T13:24:24.536Z,4.30
2023-05-15T13:26:52.741Z,9.10
2023-05-15T13:29:19.853Z,6.40
2023-05-15T13:31:47.073Z,5.70
2023-05-15T13:34:14.151Z,3.80
2023-05-15T13:36:41.161Z,2.90
2023-05-15T13:39:08.162Z,7.70
2023-05-15T13:41:36.841Z,5.30
2023-05-15T13:44:03.834Z,5.30
2023-05-15T13:46:30.711Z,5.10
2023-05-15T13:48:57.616Z,5.80
2023-05-15T13:51:24.532Z,7.00
2023-05-15T13:53:51.414Z,5.30
2023-05-15T13:56:18.438Z,2.60
2023-05-15T13:58:45.653Z,5.10
2023-05-15T14:01:12.604Z,5.10
2023-05-15T14:03:39.719Z,5.40
2023-05-15T14:06:07.165Z,5.20
2023-05-15T14:08:34.013Z,5.00
2023-05-15T14:11:01.587Z,8.20
2023-05-15T14:13:31.776Z,7.30
2023-05-15T14:15:58.815Z,3.10
2023-05-15T14:18:26.299Z,2.90
2023-05-15T14:20:53.192Z,4.70
2023-05-15T14:23:20.091Z,3.20
2023-05-15T14:25:46.890Z,2.40
2023-05-15T14:28:13.888Z,7.40
2023-05-15T14:30:40.667Z,6.50
2023-05-15T14:33:07.603Z,6.20
2023-05-15T14:35:34.564Z,4.50
2023-05-15T14:38:01.504Z,3.60
2023-05-15T14:40:28.365Z,4.00
2023-05-15T14:42:55.301Z,3.40
2023-05-15T14:45:22.356Z,5.10
2023-05-15T14:47:49.209Z,4.40
2023-05-15T14:50:16.286Z,5.30
2023-05-15T14:52:43.087Z,2.70
2023-05-15T14:55:10.286Z,2.00
2023-05-15T14:57:37.936Z,2.30
2023-05-15T15:00:06.756Z,3.40
2023-05-15T15:02:34.233Z,6.20
2023-05-15T15:05:01.171Z,1.50
2023-05-15T15:07:29.625Z,1.90
2023-05-15T15:09:56.411Z,6.00
2023-05-15T15:12:23.318Z,5.30
2023-05-15T15:14:50.253Z,4.90
2023-05-15T15:17:17.231Z,3.70
2023-05-15T15:19:44.177Z,4.00
2023-05-15T15:22:11.226Z,1.60
2023-05-15T15:24:38.153Z,4.00
2023-05-15T15:27:05.444Z,5.90
2023-05-15T15:29:32.369Z,10.30
2023-05-15T15:31:59.186Z,2.30
2023-05-15T15:34:26.962Z,4.40
2023-05-15T15:36:53.753Z,3.60
2023-05-15T15:39:21.090Z,5.40
2023-05-15T15:41:47.976Z,3.10
2023-05-15T15:44:14.977Z,6.90
2023-05-15T15:46:41.874Z,2.30
2023-05-15T15:49:08.777Z,4.40
2023-05-15T15:51:35.605Z,4.60
2023-05-15T15:54:02.475Z,8.50
2023-05-15T15:56:29.370Z,9.10
2023-05-15T15:58:56.166Z,7.80
2023-05-15T16:01:23.458Z,5.90
2023-05-15T16:03:50.419Z,4.10
2023-05-15T16:06:17.384Z,6.00
2023-05-15T16:08:44.334Z,5.90
2023-05-15T16:11:11.178Z,13.30
2023-05-15T16:13:40.298Z,5.90
2023-05-15T16:16:08.150Z,11.50
2023-05-15T16:18:35.455Z,4.10
2023-05-15T16:21:02.397Z,3.50
2023-05-15T16:23:32.968Z,5.70
2023-05-15T16:25:59.768Z,4.50
2023-05-15T16:28:26.708Z,3.60
2023-05-15T16:30:53.647Z,7.90
2023-05-15T16:33:20.885Z,2.70
2023-05-15T16:35:47.826Z,7.90
2023-05-15T16:38:14.775Z,3.50
2023-05-15T16:40:41.817Z,1.70
2023-05-15T16:43:09.097Z,4.00
2023-05-15T16:45:35.888Z,3.50
2023-05-15T16:48:02.815Z,8.00
2023-05-15T16:50:31.693Z,7.40
2023-05-15T16:52:59.060Z,5.20
2023-05-15T16:55:26.087Z,6.50
2023-05-15T16:57:52.960Z,4.90
2023-05-15T17:00:21.183Z,4.30
2023-05-15T17:02:48.760Z,6.50
2023-05-15T17:05:15.844Z,11.00
2023-05-15T17:07:43.364Z,3.30
2023-05-15T17:10:11.413Z,6.10
2023-05-15T17:12:38.369Z,4.70
2023-05-15T17:15:06.280Z,14.30
2023-05-15T17:17:33.214Z,2.60
2023-05-15T17:20:02.414Z,7.10
2023-05-15T17:22:29.876Z,7.60
2023-05-15T17:24:57.137Z,4.00
2023-05-15T17:27:24.657Z,5.30
2023-05-15T17:29:51.564Z,7.80
2023-05-15T17:32:18.989Z,6.90
2023-05-15T17:34:46.336Z,8.60
2023-05-15T17:37:13.131Z,6.70
2023-05-15T17:39:40.090Z,6.20
2023-05-15T17:42:06.960Z,7.40
2023-05-15T17:44:33.837Z,13.10
2023-05-15T17:47:00.920Z,8.10
2023-05-15T17:49:28.069Z,12.60
2023-05-15T17:51:54.845Z,5.00
2023-05-15T17:54:21.759Z,2.90
2023-05-15T17:56:48.725Z,9.00
2023-05-15T17:59:16.283Z,4.30
2023-05-15T18:01:43.268Z,6.00
2023-05-15T18:04:10.797Z,7.10
2023-05-15T18:06:38.100Z,10.50
2023-05-15T18:09:05.302Z,9.60
2023-05-15T18:11:32.435Z,3.10
2023-05-15T18:13:59.447Z,9.70
2023-05-15T18:16:26.542Z,11.70
2023-05-15T18:18:53.733Z,13.20
2023-05-15T18:21:20.851Z,6.10
2023-05-15T18:23:47.683Z,9.10
2023-05-15T18:26:14.533Z,5.00
2023-05-15T18:28:41.432Z,5.80
2023-05-15T18:31:08.501Z,9.20
2023-05-15T18:33:35.530Z,3.60
2023-05-15T18:36:03.150Z,6.00
2023-05-15T18:38:31.052Z,6.20
2023-05-15T18:40:57.878Z,4.50
2023-05-15T18:43:24.823Z,6.60
2023-05-15T18:45:51.685Z,7.10
2023-05-15T18:48:18.526Z,4.50
2023-05-15T18:50:45.572Z,4.80
2023-05-15T18:53:12.479Z,7.80
2023-05-15T18:55:39.602Z,6.20
2023-05-15T18:58:06.607Z,8.50
2023-05-15T19:00:38.652Z,8.60
2023-05-15T19:03:08.304Z,8.00
2023-05-15T19:05:35.553Z,13.00
2023-05-15T19:08:02.931Z,4.40
2023-05-15T19:10:30.739Z,5.10
2023-05-15T19:12:57.902Z,7.10
2023-05-15T19:15:24.913Z,9.90
2023-05-15T19:17:52.010Z,5.50
2023-05-15T19:20:19.415Z,7.90
2023-05-15T19:22:46.450Z,5.70
2023-05-15T19:25:13.328Z,8.90
2023-05-15T19:27:40.416Z,7.20
2023-05-15T19:30:09.324Z,8.90
2023-05-15T19:32:36.607Z,6.70
2023-05-15T19:35:03.895Z,12.60
2023-05-15T19:37:30.677Z,15.30
2023-05-15T19:39:57.462Z,8.50
2023-05-15T19:42:24.272Z,5.40
2023-05-15T19:44:51.156Z,6.00
2023-05-15T19:47:18.042Z,11.40
2023-05-15T19:49:45.685Z,6.90
2023-05-15T19:52:12.556Z,6.50
2023-05-15T19:54:39.479Z,16.60
2023-05-15T19:57:06.376Z,6.20
2023-05-15T19:59:33.171Z,4.90
2023-05-15T20:02:01.700Z,8.50
2023-05-15T20:04:29.127Z,10.70
2023-05-15T20:06:55.970Z,12.90
2023-05-15T20:09:22.725Z,8.60
2023-05-15T20:11:49.646Z,5.40
2023-05-15T20:14:16.794Z,6.30
2023-05-15T20:16:43.736Z,5.90
2023-05-15T20:19:11.222Z,7.60
2023-05-15T20:21:38.907Z,9.70
2023-05-15T20:24:07.134Z,11.10
2023-05-15T20:26:36.134Z,4.60
2023-05-15T20:29:03.816Z,7.40
2023-05-15T20:31:30.943Z,6.90
2023-05-15T20:33:59.252Z,8.10
2023-05-15T20:36:26.228Z,8.80
2023-05-15T20:38:53.253Z,6.20
2023-05-15T20:41:22.831Z,5.20
2023-05-15T20:43:50.027Z,4.80
2023-05-15T20:46:17.188Z,5.00
2023-05-15T20:48:44.350Z,5.50
2023-05-15T20:51:11.246Z,4.30
2023-05-15T20:53:38.028Z,7.60
2023-05-15T20:56:05.033Z,5.50
2023-05-15T20:58:31.854Z,11.10
2023-05-15T21:01:01.259Z,7.70
2023-05-15T21:03:29.204Z,4.80
2023-05-15T21:05:57.540Z,5.00
2023-05-15T21:08:24.934Z,5.80
2023-05-15T21:10:55.516Z,4.90
2023-05-15T21:13:22.482Z,5.10
2023-05-15T21:15:49.286Z,6.20
2023-05-15T21:18:16.380Z,8.10
2023-05-15T21:20:43.296Z,8.60
2023-05-15T21:23:10.074Z,5.50
2023-05-15T21:25:37.842Z,4.40
2023-05-15T21:28:04.816Z,3.20
2023-05-15T21:30:31.812Z,5.40
2023-05-15T21:32:59.383Z,6.50
2023-05-15T21:35:29.055Z,9.40
2023-05-15T21:37:56.115Z,7.10
2023-05-15T21:40:23.070Z,5.20
2023-05-15T21:42:50.127Z,9.10
2023-05-15T21:45:17.540Z,5.30
2023-05-15T21:47:44.396Z,6.70
2023-05-15T21:50:11.524Z,5.40
2023-05-15T21:52:38.365Z,7.10
2023-05-15T21:55:06.001Z,7.00
2023-05-15T21:57:33.150Z,5.50
2023-05-15T22:00:00.221Z,7.00
2023-05-15T22:02:27.231Z,6.20
2023-05-15T22:04:54.592Z,10.60
2023-05-15T22:07:21.901Z,9.80
2023-05-15T22:09:48.887Z,3.90
2023-05-15T22:12:15.807Z,6.10
2023-05-15T22:14:54.464Z,6.90
2023-05-15T22:17:26.558Z,4.60
2023-05-15T22:19:53.681Z,5.40
2023-05-15T22:22:20.999Z,3.90
2023-05-15T22:24:48.275Z,4.10
2023-05-15T22:27:16.877Z,6.10
2023-05-15T22:29:43.980Z,4.40
2023-05-15T22:32:10.918Z,6.50
2023-05-15T22:34:37.775Z,10.30
2023-05-15T22:37:05.159Z,3.70
2023-05-15T22:39:33.071Z,3.60
2023-05-15T22:41:59.905Z,4.00
2023-05-15T22:44:26.765Z,3.50
2023-05-15T22:46:53.599Z,8.70
2023-05-15T22:49:25.385Z,4.00
2023-05-15T22:51:53.675Z,5.10
2023-05-15T22:54:23.116Z,6.50
2023-05-15T22:56:51.489Z,5.80
2023-05-15T22:59:18.664Z,4.20
2023-05-15T23:01:46.442Z,5.10
2023-05-15T23:04:13.825Z,3.70
2023-05-15T23:06:41.228Z,5.20
2023-05-15T23:09:08.636Z,5.10
2023-05-15T23:11:35.649Z,6.60
2023-05-15T23:14:03.156Z,9.90
2023-05-15T23:16:30.094Z,5.60
2023-05-15T23:18:57.970Z,5.80
2023-05-15T23:21:24.994Z,3.80
2023-05-15T23:23:51.784Z,4.10
2023-05-15T23:26:18.604Z,5.20
2023-05-15T23:28:45.395Z,7.30
2023-05-15T23:33:03.892Z,4.70
2023-05-15T23:35:30.816Z,6.90
2023-05-15T23:37:57.619Z,5.20
2023-05-15T23:40:24.729Z,3.90
2023-05-15T23:42:51.837Z,7.30
2023-05-15T23:45:18.727Z,6.30
2023-05-15T23:47:46.759Z,8.30
2023-05-15T23:50:13.673Z,3.20
2023-05-15T23:52:41.055Z,3.80
2023-05-15T23:55:08.397Z,8.50
2023-05-15T23:57:35.290Z,5.60
